createdAt,value
2018-03-22T00:00:07.646Z,-4.70
2018-03-22T00:02:35.172Z,-4.70
2018-03-22T00:05:02.666Z,-4.80
2018-03-22T00:07:30.151Z,-4.80
2018-03-22T00:09:57.658Z,-4.80
2018-03-22T00:12:25.143Z,-4.80
2018-03-22T00:14:53.426Z,-5.00
2018-03-22T00:17:21.676Z,-5.00
2018-03-22T00:19:49.198Z,-5.10
2018-03-22T00:22:28.519Z,-5.10
2018-03-22T00:24:56.035Z,-5.10
2018-03-22T00:27:23.519Z,-5.10
2018-03-22T00:29:51.020Z,-5.10
2018-03-22T00:32:18.519Z,-5.10
2018-03-22T00:34:46.767Z,-5.10
2018-03-22T00:37:14.254Z,-5.10
2018-03-22T00:39:42.514Z,-5.10
2018-03-22T00:42:09.996Z,-5.10
2018-03-22T00:44:37.503Z,-5.10
2018-03-22T00:47:04.983Z,-5.10
2018-03-22T00:49:32.470Z,-5.00
2018-03-22T00:52:00.726Z,-4.80
2018-03-22T00:54:28.974Z,-4.70
2018-03-22T00:56:56.474Z,-4.80
2018-03-22T00:59:24.718Z,-4.70
2018-03-22T01:01:52.193Z,-4.70
2018-03-22T01:04:20.598Z,-4.60
2018-03-22T01:06:48.078Z,-4.60
2018-03-22T01:09:15.559Z,-4.50
2018-03-22T01:11:43.053Z,-4.20
2018-03-22T01:14:11.303Z,-3.80
2018-03-22T01:16:38.785Z,-3.80
2018-03-22T01:19:07.050Z,-3.60
2018-03-22T01:21:35.295Z,-3.50
2018-03-22T01:24:02.770Z,-3.50
2018-03-22T01:26:30.441Z,-3.40
2018-03-22T01:28:59.707Z,-3.30
2018-03-22T01:31:27.199Z,-3.30
2018-03-22T01:33:55.512Z,-3.20
2018-03-22T01:36:22.992Z,-3.20
2018-03-22T01:38:50.470Z,-3.10
2018-03-22T01:41:17.974Z,-3.10
2018-03-22T01:43:45.456Z,-3.10
2018-03-22T01:46:12.952Z,-3.00
2018-03-22T01:48:40.444Z,-3.00
2018-03-22T01:51:07.934Z,-3.00
2018-03-22T01:53:35.415Z,-3.10
2018-03-22T01:56:02.911Z,-3.10
2018-03-22T01:58:30.393Z,-3.10
2018-03-22T02:00:58.122Z,-3.10
2018-03-22T02:03:26.366Z,-3.10
2018-03-22T02:05:53.849Z,-3.20
2018-03-22T02:08:22.121Z,-3.20
2018-03-22T02:10:50.382Z,-3.20
2018-03-22T02:13:17.868Z,-3.20
2018-03-22T02:15:46.135Z,-3.10
2018-03-22T02:18:14.385Z,-3.10
2018-03-22T02:20:41.866Z,-3.10
2018-03-22T02:23:10.245Z,-3.10
2018-03-22T02:25:38.490Z,-3.00
2018-03-22T02:28:05.974Z,-3.00
2018-03-22T02:30:34.248Z,-2.90
2018-03-22T02:33:02.495Z,-2.90
2018-03-22T02:35:29.975Z,-2.90
2018-03-22T02:37:57.483Z,-2.90
2018-03-22T02:40:24.966Z,-2.90
2018-03-22T02:42:53.221Z,-2.70
2018-03-22T02:45:20.731Z,-2.70
2018-03-22T02:47:48.974Z,-2.60
2018-03-22T02:50:17.250Z,-2.60
2018-03-22T02:52:44.754Z,-2.70
2018-03-22T02:55:12.246Z,-2.60
2018-03-22T02:57:39.762Z,-2.60
2018-03-22T03:00:08.017Z,-2.60
2018-03-22T03:02:35.503Z,-2.70
2018-03-22T03:05:03.002Z,-2.60
2018-03-22T03:07:30.478Z,-2.60
2018-03-22T03:09:57.958Z,-2.70
2018-03-22T03:12:26.229Z,-2.60
2018-03-22T03:14:54.482Z,-2.60
2018-03-22T03:17:21.994Z,-2.70
2018-03-22T03:19:49.478Z,-2.70
2018-03-22T03:22:17.962Z,-2.70
2018-03-22T03:24:45.497Z,-2.70
2018-03-22T03:27:12.978Z,-2.80
2018-03-22T03:29:40.466Z,-2.80
2018-03-22T03:32:07.978Z,-2.80
2018-03-22T03:34:35.455Z,-2.80
2018-03-22T03:37:02.931Z,-2.90
2018-03-22T03:39:30.430Z,-2.90
2018-03-22T03:41:57.923Z,-2.90
2018-03-22T03:44:25.406Z,-3.00
2018-03-22T03:46:52.906Z,-3.00
2018-03-22T03:49:20.383Z,-3.00
2018-03-22T03:51:47.899Z,-3.00
2018-03-22T03:54:16.143Z,-3.00
2018-03-22T03:56:43.621Z,-3.00
2018-03-22T03:59:11.291Z,-3.00
2018-03-22T04:01:39.534Z,-3.00
2018-03-22T04:04:07.014Z,-3.00
2018-03-22T04:06:34.514Z,-3.00
2018-03-22T04:09:01.993Z,-3.00
2018-03-22T04:11:29.473Z,-3.00
2018-03-22T04:13:56.967Z,-2.90
2018-03-22T04:16:25.204Z,-2.90
2018-03-22T04:18:52.682Z,-2.90
2018-03-22T04:21:20.957Z,-3.00
2018-03-22T04:23:49.206Z,-3.00
2018-03-22T04:26:16.683Z,-3.00
2018-03-22T04:28:44.182Z,-3.00
2018-03-22T04:31:11.662Z,-3.00
2018-03-22T04:33:39.913Z,-3.10
2018-03-22T04:36:07.422Z,-3.10
2018-03-22T04:38:34.907Z,-3.10
2018-03-22T04:41:03.159Z,-3.20
2018-03-22T04:43:30.673Z,-3.30
2018-03-22T04:45:58.162Z,-3.30
2018-03-22T04:48:25.641Z,-3.30
2018-03-22T04:50:54.118Z,-3.30
2018-03-22T04:53:21.596Z,-3.30
2018-03-22T04:55:49.074Z,-3.30
2018-03-22T04:58:18.505Z,-3.30
2018-03-22T05:00:45.979Z,-3.20
2018-03-22T05:03:13.487Z,-3.20
2018-03-22T05:05:40.963Z,-3.10
2018-03-22T05:08:08.443Z,-3.10
2018-03-22T05:10:35.930Z,-3.10
2018-03-22T05:13:04.186Z,-2.90
2018-03-22T05:15:31.657Z,-2.90
2018-03-22T05:17:59.923Z,-2.80
2018-03-22T05:20:27.419Z,-2.80
2018-03-22T05:22:54.895Z,-2.70
2018-03-22T05:25:22.395Z,-2.70
2018-03-22T05:27:49.874Z,-2.70
2018-03-22T05:30:18.114Z,-2.50
2018-03-22T05:32:45.612Z,-2.60
2018-03-22T05:35:13.858Z,-2.50
2018-03-22T05:37:41.374Z,-2.50
2018-03-22T05:40:08.882Z,-2.40
2018-03-22T05:42:37.134Z,-2.20
2018-03-22T05:45:04.615Z,-2.20
2018-03-22T05:47:34.115Z,-2.10
2018-03-22T05:50:02.375Z,-2.00
2018-03-22T05:52:29.855Z,-2.00
2018-03-22T05:54:58.123Z,-1.80
2018-03-22T05:57:25.602Z,-1.90
2018-03-22T05:59:53.847Z,-1.70
2018-03-22T06:02:21.483Z,-1.70
2018-03-22T06:04:48.959Z,-1.70
2018-03-22T06:07:16.447Z,-1.60
2018-03-22T06:09:44.722Z,-1.50
2018-03-22T06:12:12.976Z,-1.40
2018-03-22T06:14:40.462Z,-1.50
2018-03-22T06:17:08.738Z,-1.50
2018-03-22T06:19:36.286Z,-1.50
2018-03-22T06:22:05.745Z,-1.40
2018-03-22T06:24:33.256Z,-1.40
2018-03-22T06:27:00.751Z,-1.30
2018-03-22T06:29:28.226Z,-1.20
2018-03-22T06:31:57.745Z,-1.30
2018-03-22T06:34:25.241Z,-1.30
2018-03-22T06:36:52.782Z,-1.20
2018-03-22T06:39:21.215Z,-1.20
2018-03-22T06:41:48.735Z,-1.20
2018-03-22T06:44:16.222Z,-1.10
2018-03-22T06:46:43.754Z,-1.00
2018-03-22T06:49:11.237Z,-0.90
2018-03-22T06:51:38.735Z,-0.90
2018-03-22T06:54:06.344Z,-0.80
2018-03-22T06:56:33.824Z,-0.80
2018-03-22T06:59:01.315Z,-0.50
2018-03-22T07:01:29.608Z,-0.10
2018-03-22T07:03:57.863Z,0.00
2018-03-22T07:06:25.334Z,0.00
2018-03-22T07:08:53.599Z,0.00
2018-03-22T07:11:21.084Z,0.00
2018-03-22T07:13:48.594Z,0.20
2018-03-22T07:16:16.850Z,0.60
2018-03-22T07:18:44.338Z,0.50
2018-03-22T07:21:11.847Z,0.30
2018-03-22T07:23:39.342Z,-0.10
2018-03-22T07:26:06.899Z,-0.30
2018-03-22T07:28:34.467Z,-0.30
2018-03-22T07:31:01.963Z,-0.30
2018-03-22T07:33:29.465Z,-0.50
2018-03-22T07:35:56.975Z,-0.40
2018-03-22T07:38:24.457Z,-0.30
2018-03-22T07:40:52.123Z,-0.20
2018-03-22T07:43:25.246Z,-0.10
2018-03-22T07:45:52.778Z,0.00
2018-03-22T07:48:20.290Z,0.00
2018-03-22T07:50:48.586Z,0.20
2018-03-22T07:53:16.111Z,0.20
2018-03-22T07:55:44.408Z,0.20
2018-03-22T07:58:11.950Z,0.20
2018-03-22T08:00:40.248Z,0.30
2018-03-22T08:03:08.587Z,0.30
2018-03-22T08:05:36.106Z,0.20
2018-03-22T08:08:03.634Z,0.40
2018-03-22T08:10:31.919Z,0.60
2018-03-22T08:12:59.450Z,0.60
2018-03-22T08:15:26.955Z,0.70
2018-03-22T08:17:54.448Z,0.60
2018-03-22T08:20:21.994Z,1.00
2018-03-22T08:22:49.502Z,0.90
2018-03-22T08:25:17.777Z,1.30
2018-03-22T08:27:45.325Z,1.30
2018-03-22T08:30:13.871Z,1.60
2018-03-22T08:32:41.367Z,1.60
2018-03-22T08:35:09.674Z,1.50
2018-03-22T08:37:37.200Z,1.50
2018-03-22T08:40:05.491Z,1.30
2018-03-22T08:42:33.008Z,1.30
2018-03-22T08:45:01.294Z,1.30
2018-03-22T08:47:28.817Z,1.20
2018-03-22T08:49:56.314Z,1.30
2018-03-22T08:52:23.822Z,1.30
2018-03-22T08:54:51.500Z,1.10
2018-03-22T08:57:18.946Z,1.00
2018-03-22T08:59:46.457Z,1.00
2018-03-22T09:02:14.882Z,0.90
2018-03-22T09:04:42.388Z,0.90
2018-03-22T09:07:10.638Z,1.20
2018-03-22T09:09:38.186Z,1.20
2018-03-22T09:12:05.746Z,1.30
2018-03-22T09:14:33.193Z,1.30
2018-03-22T09:17:00.800Z,1.30
2018-03-22T09:19:29.061Z,1.40
2018-03-22T09:21:56.742Z,1.40
2018-03-22T09:24:25.022Z,1.60
2018-03-22T09:26:59.006Z,1.30
2018-03-22T09:29:26.538Z,1.20
2018-03-22T09:31:54.034Z,1.40
2018-03-22T09:34:21.563Z,1.60
2018-03-22T09:36:49.056Z,1.60
2018-03-22T09:39:17.324Z,1.50
2018-03-22T09:41:44.834Z,1.50
2018-03-22T09:44:12.313Z,1.30
2018-03-22T09:46:39.830Z,1.20
2018-03-22T09:49:07.342Z,1.30
2018-03-22T09:51:34.852Z,1.40
2018-03-22T09:54:02.334Z,1.20
2018-03-22T09:56:30.622Z,1.00
2018-03-22T09:58:58.126Z,1.00
2018-03-22T10:01:25.632Z,1.10
2018-03-22T10:03:53.138Z,1.10
2018-03-22T10:06:20.627Z,1.10
2018-03-22T10:08:48.518Z,1.20
2018-03-22T10:11:16.063Z,1.20
2018-03-22T10:13:43.569Z,1.10
2018-03-22T10:16:11.842Z,1.00
2018-03-22T10:18:40.154Z,1.40
2018-03-22T10:21:07.651Z,1.30
2018-03-22T10:23:35.174Z,1.40
2018-03-22T10:26:02.701Z,1.40
2018-03-22T10:28:30.961Z,1.60
2018-03-22T10:30:58.460Z,1.60
2018-03-22T10:33:25.991Z,1.50
2018-03-22T10:35:54.297Z,1.70
2018-03-22T10:38:22.330Z,1.60
2018-03-22T10:40:50.639Z,1.30
2018-03-22T10:43:18.151Z,1.30
2018-03-22T10:45:45.659Z,1.30
2018-03-22T10:48:13.222Z,1.50
2018-03-22T10:50:40.717Z,1.70
2018-03-22T10:53:08.226Z,1.80
2018-03-22T10:55:35.739Z,2.20
2018-03-22T10:58:03.226Z,2.30
2018-03-22T11:00:36.781Z,2.40
2018-03-22T11:03:09.902Z,2.50
2018-03-22T11:05:38.169Z,2.40
2018-03-22T11:08:06.475Z,2.50
2018-03-22T11:10:34.003Z,2.40
2018-03-22T11:13:02.321Z,3.10
2018-03-22T11:15:29.807Z,3.10
2018-03-22T11:17:57.332Z,3.10
2018-03-22T11:20:24.831Z,3.50
2018-03-22T11:22:52.322Z,3.10
2018-03-22T11:25:20.616Z,3.20
2018-03-22T11:27:48.109Z,3.20
2018-03-22T11:30:15.608Z,2.70
2018-03-22T11:32:43.896Z,2.90
2018-03-22T11:35:11.383Z,2.90
2018-03-22T11:37:38.897Z,2.90
2018-03-22T11:40:07.167Z,2.40
2018-03-22T11:42:34.654Z,2.40
2018-03-22T11:45:02.183Z,2.30
2018-03-22T11:47:29.726Z,2.20
2018-03-22T11:49:57.236Z,2.10
2018-03-22T11:52:24.771Z,1.90
2018-03-22T11:54:53.057Z,1.70
2018-03-22T11:57:21.347Z,1.70
2018-03-22T11:59:48.874Z,1.70
2018-03-22T12:02:17.147Z,1.60
2018-03-22T12:04:45.441Z,1.70
2018-03-22T12:07:12.982Z,1.70
2018-03-22T12:09:40.467Z,1.70
2018-03-22T12:12:07.996Z,1.70
2018-03-22T12:14:35.483Z,1.70
2018-03-22T12:17:02.976Z,1.60
2018-03-22T12:19:30.505Z,1.60
2018-03-22T12:21:58.017Z,1.60
2018-03-22T12:24:25.867Z,1.60
2018-03-22T12:26:53.395Z,1.70
2018-03-22T12:29:20.904Z,1.70
2018-03-22T12:31:48.415Z,1.60
2018-03-22T12:34:16.846Z,1.70
2018-03-22T12:36:45.102Z,2.40
2018-03-22T12:39:12.620Z,2.40
2018-03-22T12:41:40.171Z,2.20
2018-03-22T12:44:07.938Z,2.20
2018-03-22T12:46:35.450Z,1.90
2018-03-22T12:49:02.958Z,1.80
2018-03-22T12:51:30.485Z,2.00
2018-03-22T12:53:58.750Z,2.10
2018-03-22T12:56:27.039Z,2.00
2018-03-22T12:58:55.313Z,1.90
2018-03-22T13:01:22.842Z,1.90
2018-03-22T13:03:50.355Z,1.60
2018-03-22T13:06:17.863Z,1.30
2018-03-22T13:08:45.390Z,1.40
2018-03-22T13:11:12.904Z,1.40
2018-03-22T13:13:41.178Z,1.30
2018-03-22T13:16:09.482Z,1.10
2018-03-22T13:18:36.993Z,1.10
2018-03-22T13:21:04.498Z,1.10
2018-03-22T13:23:32.030Z,0.90
2018-03-22T13:26:00.318Z,1.10
2018-03-22T13:28:27.851Z,1.10
2018-03-22T13:30:55.365Z,1.10
2018-03-22T13:33:22.866Z,1.10
2018-03-22T13:35:51.363Z,1.10
2018-03-22T13:38:18.846Z,1.10
2018-03-22T13:40:46.374Z,1.20
2018-03-22T13:43:14.649Z,1.20
2018-03-22T13:45:42.919Z,1.40
2018-03-22T13:48:11.187Z,1.50
2018-03-22T13:50:38.703Z,1.50
2018-03-22T13:53:06.221Z,1.50
2018-03-22T13:55:34.507Z,1.50
2018-03-22T13:58:02.010Z,1.50
2018-03-22T14:00:29.566Z,1.40
2018-03-22T14:02:57.098Z,1.60
2018-03-22T14:05:24.608Z,1.70
2018-03-22T14:07:52.147Z,1.70
2018-03-22T14:10:19.658Z,1.40
2018-03-22T14:12:47.161Z,1.40
2018-03-22T14:15:14.746Z,1.10
2018-03-22T14:17:42.229Z,1.00
2018-03-22T14:20:09.752Z,0.90
2018-03-22T14:22:37.276Z,1.00
2018-03-22T14:25:04.802Z,1.00
2018-03-22T14:27:32.334Z,1.10
2018-03-22T14:29:59.872Z,1.10
2018-03-22T14:32:27.375Z,1.20
2018-03-22T14:34:54.882Z,1.20
2018-03-22T14:37:22.484Z,1.20
2018-03-22T14:39:49.926Z,1.30
2018-03-22T14:42:17.423Z,1.30
2018-03-22T14:44:45.841Z,1.30
2018-03-22T14:47:14.132Z,1.30
2018-03-22T14:49:41.641Z,1.30
2018-03-22T14:52:09.163Z,1.50
2018-03-22T14:54:37.444Z,1.50
2018-03-22T14:57:04.948Z,1.50
2018-03-22T14:59:32.614Z,1.40
2018-03-22T15:02:00.111Z,1.50
2018-03-22T15:04:27.618Z,1.30
2018-03-22T15:06:55.128Z,1.30
2018-03-22T15:09:22.635Z,1.20
2018-03-22T15:11:50.134Z,1.20
2018-03-22T15:14:17.809Z,1.20
2018-03-22T15:16:46.099Z,1.10
2018-03-22T15:19:14.401Z,1.30
2018-03-22T15:21:41.948Z,1.20
2018-03-22T15:24:09.443Z,1.30
2018-03-22T15:26:36.928Z,1.20
2018-03-22T15:29:04.518Z,1.30
2018-03-22T15:31:32.014Z,1.40
2018-03-22T15:33:59.528Z,1.40
2018-03-22T15:36:27.022Z,1.20
2018-03-22T15:38:54.562Z,1.10
2018-03-22T15:41:22.237Z,0.90
2018-03-22T15:43:49.741Z,0.80
2018-03-22T15:46:18.939Z,0.90
2018-03-22T15:48:47.245Z,0.80
2018-03-22T15:51:14.750Z,0.80
2018-03-22T15:53:42.290Z,0.80
2018-03-22T15:56:09.806Z,0.70
2018-03-22T15:58:37.327Z,0.70
2018-03-22T16:01:05.145Z,0.60
2018-03-22T16:03:32.699Z,0.60
2018-03-22T16:06:00.249Z,0.60
2018-03-22T16:08:27.769Z,0.60
2018-03-22T16:10:56.111Z,0.50
2018-03-22T16:13:23.639Z,0.60
2018-03-22T16:15:51.933Z,0.50
2018-03-22T16:18:19.466Z,0.50
2018-03-22T16:20:47.731Z,0.50
2018-03-22T16:23:15.447Z,0.50
2018-03-22T16:25:43.024Z,0.60
2018-03-22T16:28:10.488Z,0.50
2018-03-22T16:30:37.994Z,0.50
2018-03-22T16:33:05.497Z,0.40
2018-03-22T16:35:33.001Z,0.40
2018-03-22T16:38:01.311Z,0.30
2018-03-22T16:40:28.843Z,0.30
2018-03-22T16:42:56.372Z,0.30
2018-03-22T16:45:24.663Z,0.30
2018-03-22T16:47:52.921Z,0.30
2018-03-22T16:50:20.453Z,0.30
2018-03-22T16:52:47.976Z,0.30
2018-03-22T16:55:15.502Z,0.20
2018-03-22T16:57:44.002Z,0.20
2018-03-22T17:00:11.498Z,0.20
2018-03-22T17:02:38.979Z,0.20
2018-03-22T17:05:06.498Z,0.20
2018-03-22T17:07:34.379Z,0.30
2018-03-22T17:10:01.879Z,0.40
2018-03-22T17:12:29.386Z,0.20
2018-03-22T17:14:56.894Z,0.20
2018-03-22T17:17:24.427Z,0.20
2018-03-22T17:19:52.747Z,0.30
2018-03-22T17:22:21.034Z,0.20
2018-03-22T17:24:49.297Z,0.20
2018-03-22T17:27:17.582Z,0.20
2018-03-22T17:29:45.091Z,0.20
2018-03-22T17:32:12.619Z,0.20
2018-03-22T17:34:40.175Z,0.20
2018-03-22T17:37:07.669Z,0.20
2018-03-22T17:39:35.202Z,0.10
2018-03-22T17:42:02.875Z,0.20
2018-03-22T17:44:30.409Z,0.20
2018-03-22T17:46:57.937Z,0.20
2018-03-22T17:49:25.710Z,0.20
2018-03-22T17:51:53.226Z,0.20
2018-03-22T17:54:21.300Z,0.20
2018-03-22T17:56:48.864Z,0.20
2018-03-22T17:59:17.167Z,0.20
2018-03-22T18:01:44.722Z,0.20
2018-03-22T18:04:13.025Z,0.10
2018-03-22T18:06:40.522Z,0.20
2018-03-22T18:09:08.151Z,0.30
2018-03-22T18:11:35.831Z,0.20
2018-03-22T18:14:03.339Z,0.20
2018-03-22T18:16:31.855Z,0.20
2018-03-22T18:18:59.392Z,0.10
2018-03-22T18:21:26.906Z,0.20
2018-03-22T18:23:55.188Z,0.20
2018-03-22T18:26:22.718Z,0.30
2018-03-22T18:28:51.252Z,0.20
2018-03-22T18:31:20.202Z,0.20
2018-03-22T18:33:47.728Z,0.20
2018-03-22T18:36:15.292Z,0.20
2018-03-22T18:38:42.777Z,0.20
2018-03-22T18:41:10.794Z,0.20
2018-03-22T18:43:39.078Z,0.20
2018-03-22T18:46:06.611Z,0.20
2018-03-22T18:48:34.155Z,0.10
2018-03-22T18:51:01.677Z,0.20
2018-03-22T18:53:29.206Z,0.10
2018-03-22T18:55:56.742Z,0.10
2018-03-22T18:58:24.239Z,0.10
2018-03-22T19:00:51.741Z,0.10
2018-03-22T19:03:19.250Z,0.20
2018-03-22T19:05:46.754Z,0.20
2018-03-22T19:08:15.774Z,0.20
2018-03-22T19:10:44.039Z,0.20
2018-03-22T19:13:11.522Z,0.30
2018-03-22T19:15:39.182Z,0.30
2018-03-22T19:18:06.686Z,0.20
2018-03-22T19:20:34.182Z,0.20
2018-03-22T19:23:02.505Z,0.20
2018-03-22T19:25:29.994Z,0.20
2018-03-22T19:27:57.493Z,0.20
2018-03-22T19:30:25.010Z,0.20
2018-03-22T19:32:52.528Z,0.20
2018-03-22T19:35:20.039Z,0.20
2018-03-22T19:37:47.557Z,0.20
2018-03-22T19:40:15.052Z,0.20
2018-03-22T19:42:42.546Z,0.20
2018-03-22T19:45:10.070Z,0.20
2018-03-22T19:47:37.587Z,0.20
2018-03-22T19:50:05.082Z,0.20
2018-03-22T19:52:32.595Z,0.20
2018-03-22T19:55:00.096Z,0.20
2018-03-22T19:57:27.595Z,0.20
2018-03-22T19:59:55.146Z,0.20
2018-03-22T20:02:22.666Z,0.20
2018-03-22T20:04:50.162Z,0.20
2018-03-22T20:07:17.725Z,0.20
2018-03-22T20:09:45.225Z,0.30
2018-03-22T20:12:12.718Z,0.20
2018-03-22T20:14:41.202Z,0.30
2018-03-22T20:17:09.486Z,0.30
2018-03-22T20:19:36.995Z,0.30
2018-03-22T20:22:04.498Z,0.30
2018-03-22T20:24:31.996Z,0.30
2018-03-22T20:26:59.502Z,0.30
2018-03-22T20:29:27.814Z,0.30
2018-03-22T20:31:55.299Z,0.30
2018-03-22T20:34:22.804Z,0.30
2018-03-22T20:36:51.088Z,0.30
2018-03-22T20:39:18.594Z,0.30
2018-03-22T20:41:46.098Z,0.30
2018-03-22T20:44:13.618Z,0.40
2018-03-22T20:46:41.125Z,0.40
2018-03-22T20:49:08.630Z,0.40
2018-03-22T20:51:36.159Z,0.40
2018-03-22T20:54:03.653Z,0.40
2018-03-22T20:56:31.153Z,0.40
2018-03-22T20:58:58.678Z,0.40
2018-03-22T21:01:26.174Z,0.40
2018-03-22T21:03:53.719Z,0.40
2018-03-22T21:06:21.206Z,0.40
2018-03-22T21:08:48.719Z,0.30
2018-03-22T21:11:16.990Z,0.40
2018-03-22T21:13:44.529Z,0.40
2018-03-22T21:16:12.060Z,0.40
2018-03-22T21:18:39.550Z,0.40
2018-03-22T21:21:07.070Z,0.40
2018-03-22T21:23:34.571Z,0.40
2018-03-22T21:26:02.104Z,0.40
2018-03-22T21:28:29.630Z,0.40
2018-03-22T21:30:57.128Z,0.40
2018-03-22T21:33:25.402Z,0.50
2018-03-22T21:35:52.911Z,0.50
2018-03-22T21:38:20.435Z,0.50
2018-03-22T21:40:47.941Z,0.50
2018-03-22T21:43:15.462Z,0.50
2018-03-22T21:45:43.723Z,0.50
2018-03-22T21:48:11.224Z,0.50
2018-03-22T21:50:50.534Z,0.50
2018-03-22T21:53:18.806Z,0.40
2018-03-22T21:55:46.310Z,0.40
2018-03-22T21:58:13.841Z,0.50
2018-03-22T22:00:41.342Z,0.40
2018-03-22T22:03:08.838Z,0.50
2018-03-22T22:05:37.260Z,0.40
2018-03-22T22:08:04.749Z,0.50
2018-03-22T22:10:32.252Z,0.40
2018-03-22T22:12:59.779Z,0.50
2018-03-22T22:15:27.299Z,0.50
2018-03-22T22:17:54.821Z,0.50
2018-03-22T22:20:22.332Z,0.40
2018-03-22T22:22:50.607Z,0.50
2018-03-22T22:25:18.105Z,0.40
2018-03-22T22:27:46.711Z,0.50
2018-03-22T22:30:14.213Z,0.40
2018-03-22T22:32:42.525Z,0.40
2018-03-22T22:35:10.003Z,0.40
2018-03-22T22:37:37.490Z,0.40
2018-03-22T22:40:05.766Z,0.40
2018-03-22T22:42:33.278Z,0.40
2018-03-22T22:45:01.555Z,0.30
2018-03-22T22:47:29.839Z,0.40
2018-03-22T22:49:57.331Z,0.30
2018-03-22T22:52:24.834Z,0.30
2018-03-22T22:54:53.136Z,0.40
2018-03-22T22:57:20.643Z,0.30
2018-03-22T22:59:48.141Z,0.40
2018-03-22T23:02:15.683Z,0.40
2018-03-22T23:04:43.939Z,0.40
2018-03-22T23:07:11.431Z,0.40
2018-03-22T23:09:38.966Z,0.40
2018-03-22T23:12:07.322Z,0.40
2018-03-22T23:14:34.816Z,0.40
2018-03-22T23:17:03.103Z,0.40
2018-03-22T23:19:30.602Z,0.40
2018-03-22T23:21:58.107Z,0.50
2018-03-22T23:24:25.646Z,0.40
2018-03-22T23:26:53.139Z,0.50
2018-03-22T23:29:20.634Z,0.50
2018-03-22T23:31:48.158Z,0.50
2018-03-22T23:34:15.686Z,0.50
2018-03-22T23:36:43.150Z,0.40
2018-03-22T23:39:11.441Z,0.40
2018-03-22T23:41:38.934Z,0.50
2018-03-22T23:44:06.464Z,0.40
2018-03-22T23:46:33.966Z,0.50
2018-03-22T23:49:01.533Z,0.50
2018-03-22T23:51:29.071Z,0.50
2018-03-22T23:53:56.562Z,0.50
2018-03-22T23:56:24.056Z,0.50
2018-03-22T23:58:51.582Z,0.50
